createdAt,value
2022-09-02T00:01:31.451Z,35.40
2022-09-02T00:04:01.966Z,35.60
2022-09-02T00:06:31.473Z,35.60
2022-09-02T00:09:01.826Z,35.80
2022-09-02T00:11:32.703Z,36.00
2022-09-02T00:14:03.962Z,36.10
2022-09-02T00:16:33.432Z,36.10
2022-09-02T00:19:03.484Z,36.20
2022-09-02T00:21:33.000Z,36.40
2022-09-02T00:24:02.796Z,36.60
2022-09-02T00:26:32.032Z,36.70
2022-09-02T00:29:00.014Z,36.90
2022-09-02T00:31:29.134Z,37.10
2022-09-02T00:33:57.935Z,37.20
2022-09-02T00:36:25.948Z,37.50
2022-09-02T00:38:54.534Z,37.70
2022-09-02T00:41:26.912Z,37.90
2022-09-02T00:43:57.666Z,38.20
2022-09-02T00:46:28.328Z,38.50
2022-09-02T00:49:03.374Z,38.80
2022-09-02T00:51:35.116Z,39.00
2022-09-02T00:54:04.873Z,39.20
2022-09-02T00:56:35.180Z,39.40
2022-09-02T00:59:03.548Z,39.70
2022-09-02T01:01:31.618Z,39.90
2022-09-02T01:04:00.108Z,40.20
2022-09-02T01:06:33.015Z,40.30
2022-09-02T01:09:05.956Z,40.60
2022-09-02T01:11:41.095Z,40.80
2022-09-02T01:14:10.401Z,41.00
2022-09-02T01:16:42.790Z,41.30
2022-09-02T01:19:18.806Z,41.60
2022-09-02T01:21:49.860Z,41.90
2022-09-02T01:24:20.016Z,42.20
2022-09-02T01:26:48.896Z,42.50
2022-09-02T01:29:17.840Z,42.90
2022-09-02T01:31:45.905Z,43.20
2022-09-02T01:34:13.990Z,43.60
2022-09-02T01:36:43.783Z,43.90
2022-09-02T01:39:14.467Z,44.30
2022-09-02T01:41:43.179Z,44.50
2022-09-02T01:44:12.162Z,44.80
2022-09-02T01:46:40.196Z,45.10
2022-09-02T01:49:08.380Z,45.30
2022-09-02T01:51:36.682Z,45.70
2022-09-02T01:54:05.165Z,46.10
2022-09-02T01:56:34.545Z,46.30
2022-09-02T01:59:03.192Z,46.50
2022-09-02T02:01:32.001Z,46.90
2022-09-02T02:04:00.736Z,47.20
2022-09-02T02:06:28.948Z,47.60
2022-09-02T02:08:56.896Z,48.00
2022-09-02T02:11:26.777Z,48.20
2022-09-02T02:13:56.059Z,48.50
2022-09-02T02:16:24.068Z,49.00
2022-09-02T02:18:52.169Z,49.30
2022-09-02T02:21:20.092Z,49.60
2022-09-02T02:23:48.860Z,50.00
2022-09-02T02:26:16.928Z,50.40
2022-09-02T02:28:44.941Z,50.70
2022-09-02T02:31:14.359Z,51.20
2022-09-02T02:33:42.472Z,51.60
2022-09-02T02:36:11.068Z,51.90
2022-09-02T02:38:40.156Z,52.40
2022-09-02T02:41:10.277Z,52.80
2022-09-02T02:43:38.698Z,53.10
2022-09-02T02:46:08.266Z,53.50
2022-09-02T02:48:37.798Z,53.80
2022-09-02T02:51:06.583Z,54.30
2022-09-02T02:53:36.202Z,54.50
2022-09-02T02:56:05.762Z,54.70
2022-09-02T02:58:33.801Z,55.10
2022-09-02T03:01:01.839Z,55.30
2022-09-02T03:03:29.768Z,55.60
2022-09-02T03:05:59.062Z,55.70
2022-09-02T03:08:27.606Z,56.00
2022-09-02T03:10:57.749Z,56.20
2022-09-02T03:13:29.480Z,56.40
2022-09-02T03:15:57.660Z,56.60
2022-09-02T03:18:25.783Z,56.80
2022-09-02T03:20:53.922Z,57.00
2022-09-02T03:23:23.330Z,57.20
2022-09-02T03:25:51.635Z,57.40
2022-09-02T03:28:19.915Z,57.40
2022-09-02T03:30:49.314Z,57.50
2022-09-02T03:33:17.328Z,57.50
2022-09-02T03:35:46.314Z,57.50
2022-09-02T03:38:14.637Z,57.60
2022-09-02T03:40:45.134Z,57.70
2022-09-02T03:43:13.205Z,57.80
2022-09-02T03:45:41.811Z,57.80
2022-09-02T03:48:12.262Z,58.00
2022-09-02T03:50:42.926Z,58.00
2022-09-02T03:53:19.677Z,58.80
2022-09-02T03:55:50.845Z,58.30
2022-09-02T03:58:19.245Z,58.40
2022-09-02T04:00:51.645Z,58.50
2022-09-02T04:03:20.546Z,58.50
2022-09-02T04:05:50.570Z,58.60
2022-09-02T04:08:18.643Z,58.60
2022-09-02T04:10:46.732Z,58.60
2022-09-02T04:13:16.113Z,58.60
2022-09-02T04:15:47.807Z,58.70
2022-09-02T04:18:17.178Z,58.80
2022-09-02T04:20:46.124Z,59.00
2022-09-02T04:23:14.203Z,59.10
2022-09-02T04:25:42.888Z,59.20
2022-09-02T04:28:13.118Z,59.30
2022-09-02T04:30:43.279Z,59.40
2022-09-02T04:33:12.102Z,59.50
2022-09-02T04:35:41.632Z,59.50
2022-09-02T04:38:10.409Z,59.60
2022-09-02T04:40:41.739Z,59.60
2022-09-02T04:43:09.870Z,59.70
2022-09-02T04:45:42.746Z,59.60
2022-09-02T04:48:11.026Z,59.70
2022-09-02T04:50:41.115Z,59.80
2022-09-02T04:53:09.088Z,59.80
2022-09-02T04:55:40.679Z,59.90
2022-09-02T04:58:08.688Z,59.90
2022-09-02T05:00:38.213Z,59.80
2022-09-02T05:03:07.622Z,59.80
2022-09-02T05:05:36.166Z,59.80
2022-09-02T05:08:04.844Z,59.80
2022-09-02T05:10:33.519Z,59.90
2022-09-02T05:13:01.694Z,59.90
2022-09-02T05:15:29.808Z,59.90
2022-09-02T05:17:57.918Z,59.90
2022-09-02T05:20:28.476Z,59.90
2022-09-02T05:22:56.444Z,59.90
2022-09-02T05:25:25.141Z,59.70
2022-09-02T05:27:53.052Z,59.50
2022-09-02T05:30:21.182Z,59.40
2022-09-02T05:32:49.949Z,59.30
2022-09-02T05:35:19.009Z,59.30
2022-09-02T05:37:48.546Z,59.80
2022-09-02T05:40:16.657Z,59.10
2022-09-02T05:42:50.638Z,59.70
2022-09-02T05:45:18.927Z,59.00
2022-09-02T05:47:46.903Z,58.90
2022-09-02T05:50:16.395Z,58.90
2022-09-02T05:52:44.401Z,58.80
2022-09-02T05:55:13.651Z,58.90
2022-09-02T05:57:41.619Z,58.80
2022-09-02T06:00:10.790Z,58.80
2022-09-02T06:02:46.516Z,58.70
2022-09-02T06:05:14.548Z,58.60
2022-09-02T06:07:42.503Z,58.40
2022-09-02T06:10:10.777Z,58.10
2022-09-02T06:12:42.639Z,57.80
2022-09-02T06:15:12.351Z,57.60
2022-09-02T06:17:40.320Z,57.50
2022-09-02T06:20:09.061Z,57.50
2022-09-02T06:22:38.771Z,57.40
2022-09-02T06:25:07.432Z,57.40
2022-09-02T06:27:35.918Z,57.30
2022-09-02T06:30:05.927Z,56.90
2022-09-02T06:32:33.938Z,56.60
2022-09-02T06:35:01.978Z,56.20
2022-09-02T06:37:29.914Z,56.00
2022-09-02T06:39:57.883Z,56.00
2022-09-02T06:42:26.827Z,55.90
2022-09-02T06:44:54.743Z,55.80
2022-09-02T06:47:24.093Z,55.60
2022-09-02T06:49:52.012Z,56.00
2022-09-02T06:52:19.904Z,55.20
2022-09-02T06:54:49.095Z,54.70
2022-09-02T06:57:17.042Z,54.60
2022-09-02T06:59:45.001Z,54.70
2022-09-02T07:02:13.130Z,54.40
2022-09-02T07:04:57.690Z,54.30
2022-09-02T07:07:25.988Z,54.30
2022-09-02T07:09:55.423Z,54.30
2022-09-02T07:12:23.380Z,54.50
2022-09-02T07:14:51.465Z,54.70
2022-09-02T07:17:21.891Z,54.70
2022-09-02T07:19:51.220Z,54.50
2022-09-02T07:22:19.255Z,54.50
2022-09-02T07:24:47.280Z,54.40
2022-09-02T07:27:15.507Z,54.10
2022-09-02T07:29:44.045Z,54.00
2022-09-02T07:32:11.971Z,53.80
2022-09-02T07:34:39.859Z,54.00
2022-09-02T07:37:11.029Z,54.10
2022-09-02T07:39:39.272Z,54.30
2022-09-02T07:42:07.654Z,54.30
2022-09-02T07:44:35.895Z,54.10
2022-09-02T07:47:03.897Z,54.10
2022-09-02T07:50:15.466Z,54.10
2022-09-02T07:52:21.682Z,54.10
2022-09-02T07:54:49.836Z,54.20
2022-09-02T07:57:17.889Z,54.50
2022-09-02T07:59:46.242Z,54.50
2022-09-02T08:02:14.548Z,54.40
2022-09-02T08:04:43.766Z,54.20
2022-09-02T08:07:11.838Z,54.30
2022-09-02T08:09:41.097Z,53.90
2022-09-02T08:12:09.123Z,53.60
2022-09-02T08:14:37.103Z,53.50
2022-09-02T08:17:05.064Z,53.30
2022-09-02T08:19:33.829Z,53.00
2022-09-02T08:22:05.242Z,52.50
2022-09-02T08:24:33.421Z,51.70
2022-09-02T08:27:03.009Z,50.80
2022-09-02T08:29:31.729Z,50.10
2022-09-02T08:31:59.724Z,49.30
2022-09-02T08:34:28.311Z,48.50
2022-09-02T08:36:57.591Z,48.20
2022-09-02T08:39:25.830Z,47.90
2022-09-02T08:44:38.651Z,46.90
2022-09-02T08:47:12.878Z,46.60
2022-09-02T08:49:45.250Z,46.20
2022-09-02T08:52:21.140Z,45.50
2022-09-02T08:54:55.477Z,44.90
2022-09-02T08:57:26.991Z,45.10
2022-09-02T09:00:00.970Z,44.60
2022-09-02T09:02:36.215Z,44.40
2022-09-02T09:05:17.447Z,44.20
2022-09-02T09:08:00.551Z,43.80
2022-09-02T09:10:37.336Z,43.20
2022-09-02T09:13:30.703Z,43.30
2022-09-02T09:16:08.053Z,42.30
2022-09-02T09:18:40.445Z,41.90
2022-09-02T09:21:10.449Z,41.40
2022-09-02T09:23:41.398Z,41.00
2022-09-02T09:26:11.103Z,40.80
2022-09-02T09:28:42.260Z,40.20
2022-09-02T09:31:14.916Z,39.10
2022-09-02T09:33:56.721Z,36.70
2022-09-02T09:36:49.350Z,33.20
2022-09-02T09:39:29.771Z,30.80
2022-09-02T09:41:59.600Z,29.00
2022-09-02T09:44:45.359Z,26.00
2022-09-02T09:47:20.346Z,24.00
2022-09-02T09:49:49.897Z,18.20
2022-09-02T09:52:26.807Z,15.80
2022-09-02T09:55:25.054Z,13.80
2022-09-02T09:57:54.726Z,11.60
2022-09-02T10:00:27.923Z,8.60
2022-09-02T10:03:00.886Z,8.90
2022-09-02T10:05:32.545Z,9.90
2022-09-02T10:08:03.328Z,9.20
2022-09-02T10:10:32.665Z,8.60
2022-09-02T10:16:05.111Z,7.50
2022-09-02T10:18:41.194Z,7.80
2022-09-02T10:21:25.584Z,7.70
2022-09-02T10:24:05.621Z,7.00
2022-09-02T10:26:39.050Z,5.90
2022-09-02T10:29:40.917Z,5.00
2022-09-02T10:32:30.253Z,4.70
2022-09-02T10:35:11.078Z,4.90
2022-09-02T10:37:54.713Z,5.60
2022-09-02T10:40:29.643Z,6.60
2022-09-02T10:43:05.466Z,7.60
2022-09-02T10:45:38.796Z,8.10
2022-09-02T10:48:20.917Z,7.60
2022-09-02T10:50:56.254Z,7.10
2022-09-02T10:53:50.808Z,7.00
2022-09-02T10:56:22.708Z,6.60
2022-09-02T10:58:57.027Z,7.00
2022-09-02T11:01:29.574Z,6.90
2022-09-02T11:04:08.678Z,7.80
2022-09-02T11:07:01.374Z,8.80
2022-09-02T11:09:34.663Z,10.00
2022-09-02T11:12:10.631Z,10.10
2022-09-02T11:14:57.531Z,9.90
2022-09-02T11:17:32.160Z,9.40
2022-09-02T11:20:05.362Z,9.00
2022-09-02T11:22:41.875Z,7.80
2022-09-02T11:25:16.491Z,7.80
2022-09-02T11:27:50.219Z,8.10
2022-09-02T11:30:21.529Z,8.40
2022-09-02T11:32:56.547Z,8.70
2022-09-02T11:35:27.354Z,9.40
2022-09-02T11:38:02.689Z,10.40
2022-09-02T11:40:37.496Z,10.90
2022-09-02T11:43:29.030Z,11.30
2022-09-02T11:46:13.554Z,11.60
2022-09-02T11:49:22.879Z,12.00
2022-09-02T11:52:05.743Z,12.50
2022-09-02T11:54:39.583Z,12.80
2022-09-02T11:57:12.626Z,13.20
2022-09-02T12:00:04.822Z,13.50
2022-09-02T12:02:38.511Z,13.60
2022-09-02T12:05:45.538Z,13.80
2022-09-02T12:08:15.309Z,14.20
2022-09-02T12:11:02.148Z,14.70
2022-09-02T12:13:35.871Z,14.90
2022-09-02T12:16:41.864Z,15.30
2022-09-02T12:19:41.047Z,15.10
2022-09-02T12:22:33.908Z,15.20
2022-09-02T12:25:01.920Z,15.20
2022-09-02T12:27:36.652Z,15.50
2022-09-02T12:30:07.102Z,15.40
2022-09-02T12:33:09.710Z,15.20
2022-09-02T12:35:54.677Z,15.20
2022-09-02T12:38:31.768Z,15.50
2022-09-02T12:41:24.146Z,15.30
2022-09-02T12:44:25.352Z,15.20
2022-09-02T12:47:03.990Z,15.50
2022-09-02T12:49:48.350Z,15.80
2022-09-02T12:52:42.527Z,15.80
2022-09-02T12:55:16.498Z,15.80
2022-09-02T12:57:46.693Z,16.10
2022-09-02T13:00:19.678Z,15.90
2022-09-02T13:03:00.916Z,15.60
2022-09-02T13:05:38.693Z,15.70
2022-09-02T13:08:36.695Z,15.80
2022-09-02T13:11:33.194Z,15.90
2022-09-02T13:14:28.429Z,15.70
2022-09-02T13:17:35.576Z,15.80
2022-09-02T13:20:38.551Z,15.60
2022-09-02T13:23:35.216Z,15.50
2022-09-02T13:26:48.984Z,15.60
2022-09-02T13:29:45.321Z,15.60
2022-09-02T13:32:22.150Z,15.40
2022-09-02T13:34:53.253Z,15.10
2022-09-02T13:37:32.875Z,14.90
2022-09-02T13:40:02.544Z,14.80
2022-09-02T13:42:32.941Z,14.70
2022-09-02T13:45:20.145Z,14.70
2022-09-02T13:47:51.651Z,14.40
2022-09-02T13:50:25.176Z,14.70
2022-09-02T13:55:52.166Z,14.40
2022-09-02T13:58:32.889Z,14.20
2022-09-02T14:01:20.035Z,14.10
2022-09-02T14:03:51.800Z,13.90
2022-09-02T14:06:23.549Z,13.70
2022-09-02T14:08:54.879Z,13.60
2022-09-02T14:11:23.262Z,13.90
2022-09-02T14:13:52.047Z,13.40
2022-09-02T14:16:26.369Z,13.30
2022-09-02T14:19:11.529Z,14.00
2022-09-02T14:21:47.248Z,13.50
2022-09-02T14:24:19.659Z,13.40
2022-09-02T14:26:50.633Z,13.30
2022-09-02T14:29:20.635Z,12.40
2022-09-02T14:32:03.326Z,12.50
2022-09-02T14:34:37.137Z,12.80
2022-09-02T14:37:19.192Z,13.10
2022-09-02T14:40:08.240Z,13.00
2022-09-02T14:42:46.560Z,12.80
2022-09-02T14:45:14.717Z,12.70
2022-09-02T14:47:43.847Z,12.40
2022-09-02T14:50:17.556Z,12.40
2022-09-02T14:52:51.646Z,12.30
2022-09-02T14:55:44.332Z,12.30
2022-09-02T14:58:19.784Z,12.30
2022-09-02T15:00:55.484Z,12.40
2022-09-02T15:03:24.325Z,12.30
2022-09-02T15:05:54.032Z,12.50
2022-09-02T15:08:22.525Z,12.40
2022-09-02T15:10:50.909Z,12.20
2022-09-02T15:13:26.899Z,12.40
2022-09-02T15:15:55.971Z,12.10
2022-09-02T15:18:24.373Z,12.70
2022-09-02T15:20:54.221Z,12.50
2022-09-02T15:23:24.142Z,12.60
2022-09-02T15:25:54.096Z,12.80
2022-09-02T15:28:22.118Z,12.70
2022-09-02T15:30:50.128Z,12.60
2022-09-02T15:33:18.358Z,12.70
2022-09-02T15:35:47.316Z,13.00
2022-09-02T15:38:17.053Z,13.10
2022-09-02T15:40:45.181Z,13.10
2022-09-02T15:43:13.119Z,13.40
2022-09-02T15:45:47.043Z,12.70
2022-09-02T15:48:15.655Z,12.70
2022-09-02T15:50:46.409Z,12.60
2022-09-02T15:53:16.840Z,12.40
2022-09-02T15:55:44.727Z,12.30
2022-09-02T15:58:12.590Z,12.30
2022-09-02T16:00:43.001Z,12.40
2022-09-02T16:03:12.044Z,12.70
2022-09-02T16:05:43.055Z,13.40
2022-09-02T16:08:11.482Z,13.10
2022-09-02T16:10:40.866Z,13.60
2022-09-02T16:13:08.773Z,13.80
2022-09-02T16:15:36.707Z,14.50
2022-09-02T16:18:04.779Z,14.10
2022-09-02T16:20:32.729Z,14.30
2022-09-02T16:23:00.654Z,14.50
2022-09-02T16:25:28.575Z,14.60
2022-09-02T16:27:57.870Z,14.80
2022-09-02T16:30:26.751Z,15.00
2022-09-02T16:32:55.044Z,15.10
2022-09-02T16:35:22.993Z,15.30
2022-09-02T16:37:50.936Z,15.60
2022-09-02T16:40:21.442Z,15.80
2022-09-02T16:42:50.257Z,15.90
2022-09-02T16:45:19.629Z,16.00
2022-09-02T16:47:47.789Z,15.80
2022-09-02T16:50:15.850Z,16.10
2022-09-02T16:52:43.768Z,16.40
2022-09-02T16:55:17.713Z,16.50
2022-09-02T16:57:45.611Z,16.70
2022-09-02T17:00:14.942Z,17.00
2022-09-02T17:02:44.300Z,17.10
2022-09-02T17:05:14.362Z,17.20
2022-09-02T17:07:42.271Z,17.20
2022-09-02T17:10:11.094Z,17.40
2022-09-02T17:12:42.809Z,17.50
2022-09-02T17:15:11.574Z,18.20
2022-09-02T17:17:40.038Z,18.20
2022-09-02T17:20:10.195Z,17.80
2022-09-02T17:22:38.132Z,17.70
2022-09-02T17:25:06.825Z,17.80
2022-09-02T17:27:36.276Z,17.80
2022-09-02T17:30:05.057Z,17.90
2022-09-02T17:32:33.303Z,18.00
2022-09-02T17:35:02.663Z,18.30
2022-09-02T17:37:34.999Z,18.60
2022-09-02T17:40:03.260Z,18.80
2022-09-02T17:42:30.259Z,18.90
2022-09-02T17:44:58.399Z,19.00
2022-09-02T17:47:26.393Z,19.10
2022-09-02T17:49:54.305Z,19.20
2022-09-02T17:52:23.978Z,19.20
2022-09-02T17:54:55.085Z,19.50
2022-09-02T17:57:34.114Z,19.60
2022-09-02T18:00:09.689Z,19.80
2022-09-02T18:02:59.916Z,19.90
2022-09-02T18:05:32.506Z,19.90
2022-09-02T18:08:06.439Z,20.10
2022-09-02T18:10:38.867Z,20.20
2022-09-02T18:13:10.469Z,20.90
2022-09-02T18:15:57.491Z,20.40
2022-09-02T18:18:28.277Z,20.50
2022-09-02T18:21:02.446Z,20.60
2022-09-02T18:23:51.621Z,20.80
2022-09-02T18:26:30.207Z,20.90
2022-09-02T18:29:14.416Z,20.90
2022-09-02T18:31:51.878Z,21.00
2022-09-02T18:34:33.283Z,21.20
2022-09-02T18:37:11.000Z,21.30
2022-09-02T18:40:01.995Z,21.40
2022-09-02T18:42:42.042Z,21.50
2022-09-02T18:45:21.592Z,21.60
2022-09-02T18:47:54.668Z,21.70
2022-09-02T18:53:21.954Z,21.90
2022-09-02T18:55:50.454Z,22.00
2022-09-02T18:58:29.407Z,22.00
2022-09-02T19:01:02.920Z,22.20
2022-09-02T19:03:35.780Z,22.30
2022-09-02T19:06:08.082Z,22.50
2022-09-02T19:08:37.920Z,22.60
2022-09-02T19:11:08.925Z,22.70
2022-09-02T19:13:46.337Z,22.80
2022-09-02T19:16:17.174Z,22.80
2022-09-02T19:18:45.276Z,22.80
2022-09-02T19:21:18.098Z,22.90
2022-09-02T19:23:47.755Z,23.10
2022-09-02T19:26:15.907Z,23.20
2022-09-02T19:28:46.948Z,23.40
2022-09-02T19:31:20.914Z,24.00
2022-09-02T19:33:54.861Z,23.80
2022-09-02T19:36:26.337Z,24.00
2022-09-02T19:38:59.694Z,24.40
2022-09-02T19:41:27.615Z,24.80
2022-09-02T19:43:57.321Z,25.10
2022-09-02T19:47:07.005Z,25.30
2022-09-02T19:49:13.257Z,25.40
2022-09-02T19:51:42.283Z,25.50
2022-09-02T19:54:12.748Z,25.50
2022-09-02T19:56:41.055Z,25.50
2022-09-02T19:59:10.906Z,25.60
2022-09-02T20:01:39.148Z,25.70
2022-09-02T20:04:07.235Z,25.70
2022-09-02T20:06:35.236Z,25.90
2022-09-02T20:09:03.131Z,25.90
2022-09-02T20:11:31.281Z,26.00
2022-09-02T20:13:59.223Z,26.20
2022-09-02T20:16:29.911Z,26.30
2022-09-02T20:18:58.236Z,26.40
2022-09-02T20:21:28.050Z,26.50
2022-09-02T20:23:56.404Z,26.60
2022-09-02T20:26:34.218Z,26.70
2022-09-02T20:29:17.854Z,26.80
2022-09-02T20:32:00.671Z,27.00
2022-09-02T20:34:45.817Z,27.00
2022-09-02T20:37:20.844Z,27.00
2022-09-02T20:40:04.720Z,27.00
2022-09-02T20:42:54.820Z,27.20
2022-09-02T20:45:27.646Z,27.20
2022-09-02T20:48:10.340Z,27.30
2022-09-02T20:50:48.631Z,27.50
2022-09-02T20:54:01.475Z,27.70
2022-09-02T20:56:35.407Z,27.90
2022-09-02T20:59:12.017Z,28.10
2022-09-02T21:01:43.088Z,28.20
2022-09-02T21:04:28.930Z,28.30
2022-09-02T21:07:02.213Z,28.40
2022-09-02T21:09:39.522Z,28.30
2022-09-02T21:12:19.504Z,28.40
2022-09-02T21:14:51.471Z,28.50
2022-09-02T21:17:24.078Z,28.40
2022-09-02T21:19:58.995Z,28.40
2022-09-02T21:22:32.536Z,28.50
2022-09-02T21:25:04.686Z,28.60
2022-09-02T21:27:36.846Z,28.70
2022-09-02T21:30:08.563Z,28.70
2022-09-02T21:32:41.043Z,28.80
2022-09-02T21:35:14.547Z,28.90
2022-09-02T21:37:45.964Z,29.00
2022-09-02T21:40:17.329Z,29.10
2022-09-02T21:43:00.993Z,29.10
2022-09-02T21:45:39.845Z,29.20
2022-09-02T21:48:27.540Z,29.30
2022-09-02T21:51:01.114Z,29.40
2022-09-02T21:53:47.864Z,29.70
2022-09-02T21:56:27.354Z,29.70
2022-09-02T21:59:06.594Z,29.80
2022-09-02T22:01:44.878Z,29.90
2022-09-02T22:04:25.890Z,30.00
2022-09-02T22:06:58.759Z,30.10
2022-09-02T22:09:29.260Z,30.20
2022-09-02T22:12:03.620Z,30.30
2022-09-02T22:14:37.711Z,30.50
2022-09-02T22:17:14.455Z,30.60
2022-09-02T22:19:43.869Z,31.40
2022-09-02T22:22:18.580Z,30.90
2022-09-02T22:24:47.613Z,31.00
2022-09-02T22:27:20.116Z,31.20
2022-09-02T22:29:53.539Z,31.30
2022-09-02T22:32:24.827Z,31.50
2022-09-02T22:35:00.960Z,31.60
2022-09-02T22:37:40.127Z,31.70
2022-09-02T22:40:11.435Z,31.70
2022-09-02T22:42:41.555Z,31.80
2022-09-02T22:45:31.007Z,32.10
2022-09-02T22:48:21.170Z,32.20
2022-09-02T22:51:14.010Z,32.30
2022-09-02T22:53:47.514Z,32.40
2022-09-02T22:56:20.959Z,32.70
2022-09-02T22:59:05.317Z,33.00
2022-09-02T23:01:42.289Z,33.20
2022-09-02T23:04:24.149Z,33.40
2022-09-02T23:06:55.080Z,33.40
2022-09-02T23:09:24.383Z,33.40
2022-09-02T23:12:02.178Z,33.50
2022-09-02T23:14:41.827Z,33.40
2022-09-02T23:17:20.757Z,33.30
2022-09-02T23:20:03.100Z,33.20
2022-09-02T23:22:42.006Z,33.00
2022-09-02T23:25:30.247Z,32.90
2022-09-02T23:28:09.916Z,32.70
2022-09-02T23:30:39.637Z,32.70
2022-09-02T23:33:20.082Z,32.70
2022-09-02T23:35:54.850Z,32.70
2022-09-02T23:38:41.088Z,32.70
2022-09-02T23:41:12.367Z,32.80
2022-09-02T23:43:42.810Z,32.90
2022-09-02T23:46:20.668Z,33.00
2022-09-02T23:48:56.799Z,33.10
2022-09-02T23:51:32.195Z,33.20
2022-09-02T23:54:19.634Z,33.30
2022-09-02T23:57:02.074Z,33.40
2022-09-02T23:59:46.719Z,33.70
